sensor_id;sensor_type;location;lat;lon;timestamp;P1;durP1;ratioP1;P2;durP2;ratioP2
17145;SDS011;8688;54.444;18.444;2023-07-29T00:02:30;12.35;;;10.23;;
17145;SDS011;8688;54.444;18.444;2023-07-29T00:05:02;12.05;;;9.45;;
17145;SDS011;8688;54.444;18.444;2023-07-29T00:07:32;13.27;;;9.52;;
17145;SDS011;8688;54.444;18.444;2023-07-29T00:10:00;14.43;;;9.60;;
17145;SDS011;8688;54.444;18.444;2023-07-29T00:12:31;12.75;;;9.32;;
17145;SDS011;8688;54.444;18.444;2023-07-29T00:14:58;13.00;;;9.75;;
17145;SDS011;8688;54.444;18.444;2023-07-29T00:17:26;13.85;;;9.48;;
17145;SDS011;8688;54.444;18.444;2023-07-29T00:19:57;12.63;;;9.15;;
17145;SDS011;8688;54.444;18.444;2023-07-29T00:22:27;15.32;;;10.30;;
17145;SDS011;8688;54.444;18.444;2023-07-29T00:24:55;14.43;;;10.02;;
17145;SDS011;8688;54.444;18.444;2023-07-29T00:27:24;14.50;;;9.85;;
17145;SDS011;8688;54.444;18.444;2023-07-29T00:29:53;12.82;;;9.40;;
17145;SDS011;8688;54.444;18.444;2023-07-29T00:32:21;12.35;;;9.07;;
17145;SDS011;8688;54.444;18.444;2023-07-29T00:34:56;12.35;;;9.52;;
17145;SDS011;8688;54.444;18.444;2023-07-29T00:37:26;13.68;;;10.55;;
17145;SDS011;8688;54.444;18.444;2023-07-29T00:39:56;12.10;;;9.60;;
17145;SDS011;8688;54.444;18.444;2023-07-29T00:42:24;15.32;;;10.10;;
17145;SDS011;8688;54.444;18.444;2023-07-29T00:44:52;13.85;;;10.57;;
17145;SDS011;8688;54.444;18.444;2023-07-29T00:47:19;14.23;;;10.23;;
17145;SDS011;8688;54.444;18.444;2023-07-29T00:49:53;12.70;;;9.77;;
17145;SDS011;8688;54.444;18.444;2023-07-29T00:52:21;16.33;;;7.68;;
17145;SDS011;8688;54.444;18.444;2023-07-29T00:54:50;9.50;;;6.88;;
17145;SDS011;8688;54.444;18.444;2023-07-29T00:57:18;24.48;;;7.05;;
17145;SDS011;8688;54.444;18.444;2023-07-29T00:59:47;10.05;;;7.35;;
17145;SDS011;8688;54.444;18.444;2023-07-29T01:02:15;8.02;;;6.55;;
17145;SDS011;8688;54.444;18.444;2023-07-29T01:04:43;8.65;;;6.63;;
17145;SDS011;8688;54.444;18.444;2023-07-29T01:07:14;8.18;;;6.65;;
17145;SDS011;8688;54.444;18.444;2023-07-29T01:09:54;7.05;;;6.25;;
17145;SDS011;8688;54.444;18.444;2023-07-29T01:12:27;8.23;;;6.78;;
17145;SDS011;8688;54.444;18.444;2023-07-29T01:15:04;7.72;;;6.38;;
17145;SDS011;8688;54.444;18.444;2023-07-29T01:17:42;7.45;;;5.45;;
17145;SDS011;8688;54.444;18.444;2023-07-29T01:20:11;7.97;;;6.40;;
17145;SDS011;8688;54.444;18.444;2023-07-29T01:22:42;7.65;;;6.80;;
17145;SDS011;8688;54.444;18.444;2023-07-29T01:25:12;9.70;;;8.20;;
17145;SDS011;8688;54.444;18.444;2023-07-29T01:27:45;8.82;;;7.70;;
17145;SDS011;8688;54.444;18.444;2023-07-29T01:30:13;12.15;;;9.18;;
17145;SDS011;8688;54.444;18.444;2023-07-29T01:32:43;12.48;;;8.73;;
17145;SDS011;8688;54.444;18.444;2023-07-29T01:35:17;12.45;;;8.93;;
17145;SDS011;8688;54.444;18.444;2023-07-29T01:37:53;12.70;;;8.90;;
17145;SDS011;8688;54.444;18.444;2023-07-29T01:40:26;13.43;;;9.15;;
17145;SDS011;8688;54.444;18.444;2023-07-29T01:42:55;14.45;;;10.02;;
17145;SDS011;8688;54.444;18.444;2023-07-29T01:45:24;10.95;;;8.73;;
17145;SDS011;8688;54.444;18.444;2023-07-29T01:47:57;12.55;;;9.13;;
17145;SDS011;8688;54.444;18.444;2023-07-29T01:50:25;15.18;;;9.93;;
17145;SDS011;8688;54.444;18.444;2023-07-29T01:52:52;12.57;;;9.60;;
17145;SDS011;8688;54.444;18.444;2023-07-29T01:55:22;12.93;;;10.18;;
17145;SDS011;8688;54.444;18.444;2023-07-29T01:57:51;12.80;;;9.77;;
17145;SDS011;8688;54.444;18.444;2023-07-29T02:00:19;16.65;;;11.70;;
17145;SDS011;8688;54.444;18.444;2023-07-29T02:02:47;15.88;;;11.65;;
17145;SDS011;8688;54.444;18.444;2023-07-29T02:05:15;16.25;;;11.80;;
17145;SDS011;8688;54.444;18.444;2023-07-29T02:07:43;17.15;;;11.63;;
17145;SDS011;8688;54.444;18.444;2023-07-29T02:10:10;15.00;;;11.75;;
17145;SDS011;8688;54.444;18.444;2023-07-29T02:12:38;13.70;;;11.05;;
17145;SDS011;8688;54.444;18.444;2023-07-29T02:15:08;17.48;;;10.90;;
17145;SDS011;8688;54.444;18.444;2023-07-29T02:17:38;18.17;;;11.70;;
17145;SDS011;8688;54.444;18.444;2023-07-29T02:20:09;18.70;;;11.80;;
17145;SDS011;8688;54.444;18.444;2023-07-29T02:22:43;15.88;;;11.65;;
17145;SDS011;8688;54.444;18.444;2023-07-29T02:25:14;16.35;;;11.98;;
17145;SDS011;8688;54.444;18.444;2023-07-29T02:27:44;17.30;;;11.27;;
17145;SDS011;8688;54.444;18.444;2023-07-29T02:30:16;13.90;;;11.27;;
17145;SDS011;8688;54.444;18.444;2023-07-29T02:32:44;15.23;;;10.90;;
17145;SDS011;8688;54.444;18.444;2023-07-29T02:35:16;17.30;;;11.25;;
17145;SDS011;8688;54.444;18.444;2023-07-29T02:37:43;17.92;;;12.93;;
17145;SDS011;8688;54.444;18.444;2023-07-29T02:40:11;20.33;;;11.82;;
17145;SDS011;8688;54.444;18.444;2023-07-29T02:42:39;17.10;;;11.82;;
17145;SDS011;8688;54.444;18.444;2023-07-29T02:45:07;13.02;;;10.57;;
17145;SDS011;8688;54.444;18.444;2023-07-29T02:47:38;13.45;;;10.57;;
17145;SDS011;8688;54.444;18.444;2023-07-29T02:50:06;15.25;;;10.85;;
17145;SDS011;8688;54.444;18.444;2023-07-29T02:52:35;15.63;;;12.05;;
17145;SDS011;8688;54.444;18.444;2023-07-29T02:55:06;17.80;;;12.27;;
17145;SDS011;8688;54.444;18.444;2023-07-29T02:57:34;17.42;;;11.95;;
17145;SDS011;8688;54.444;18.444;2023-07-29T03:00:04;17.13;;;12.18;;
17145;SDS011;8688;54.444;18.444;2023-07-29T03:02:33;17.88;;;11.95;;
17145;SDS011;8688;54.444;18.444;2023-07-29T03:05:06;16.95;;;11.75;;
17145;SDS011;8688;54.444;18.444;2023-07-29T03:07:34;16.58;;;11.70;;
17145;SDS011;8688;54.444;18.444;2023-07-29T03:10:02;15.52;;;11.90;;
17145;SDS011;8688;54.444;18.444;2023-07-29T03:12:31;16.95;;;12.10;;
17145;SDS011;8688;54.444;18.444;2023-07-29T03:14:58;16.25;;;11.38;;
17145;SDS011;8688;54.444;18.444;2023-07-29T03:17:27;18.27;;;11.40;;
17145;SDS011;8688;54.444;18.444;2023-07-29T03:19:54;13.98;;;11.13;;
17145;SDS011;8688;54.444;18.444;2023-07-29T03:22:26;16.42;;;11.68;;
17145;SDS011;8688;54.444;18.444;2023-07-29T03:24:54;17.33;;;12.55;;
17145;SDS011;8688;54.444;18.444;2023-07-29T03:27:22;17.55;;;12.38;;
17145;SDS011;8688;54.444;18.444;2023-07-29T03:29:50;17.58;;;13.02;;
17145;SDS011;8688;54.444;18.444;2023-07-29T03:32:18;19.15;;;12.85;;
17145;SDS011;8688;54.444;18.444;2023-07-29T03:34:46;16.98;;;12.55;;
17145;SDS011;8688;54.444;18.444;2023-07-29T03:37:14;18.80;;;13.05;;
17145;SDS011;8688;54.444;18.444;2023-07-29T03:39:43;22.77;;;13.30;;
17145;SDS011;8688;54.444;18.444;2023-07-29T03:42:12;22.48;;;14.55;;
17145;SDS011;8688;54.444;18.444;2023-07-29T03:44:40;19.45;;;13.50;;
17145;SDS011;8688;54.444;18.444;2023-07-29T03:47:09;21.58;;;13.73;;
17145;SDS011;8688;54.444;18.444;2023-07-29T03:49:38;19.70;;;13.30;;
17145;SDS011;8688;54.444;18.444;2023-07-29T03:52:06;20.45;;;13.45;;
17145;SDS011;8688;54.444;18.444;2023-07-29T03:54:36;23.13;;;14.13;;
17145;SDS011;8688;54.444;18.444;2023-07-29T03:57:05;18.50;;;12.68;;
17145;SDS011;8688;54.444;18.444;2023-07-29T03:59:33;21.00;;;12.95;;
17145;SDS011;8688;54.444;18.444;2023-07-29T04:02:01;22.00;;;12.55;;
17145;SDS011;8688;54.444;18.444;2023-07-29T04:04:29;17.95;;;13.20;;
17145;SDS011;8688;54.444;18.444;2023-07-29T04:06:57;16.45;;;12.45;;
17145;SDS011;8688;54.444;18.444;2023-07-29T04:09:27;18.02;;;12.05;;
17145;SDS011;8688;54.444;18.444;2023-07-29T04:11:55;17.90;;;13.13;;
17145;SDS011;8688;54.444;18.444;2023-07-29T04:14:27;16.80;;;12.68;;
17145;SDS011;8688;54.444;18.444;2023-07-29T04:16:55;16.52;;;12.30;;
17145;SDS011;8688;54.444;18.444;2023-07-29T04:19:26;17.52;;;11.77;;
17145;SDS011;8688;54.444;18.444;2023-07-29T04:21:54;16.42;;;12.23;;
17145;SDS011;8688;54.444;18.444;2023-07-29T04:24:26;17.65;;;11.63;;
17145;SDS011;8688;54.444;18.444;2023-07-29T04:26:57;17.17;;;11.23;;
17145;SDS011;8688;54.444;18.444;2023-07-29T04:29:26;13.88;;;10.48;;
17145;SDS011;8688;54.444;18.444;2023-07-29T04:32:00;14.50;;;11.75;;
17145;SDS011;8688;54.444;18.444;2023-07-29T04:34:28;15.15;;;11.23;;
17145;SDS011;8688;54.444;18.444;2023-07-29T04:36:56;13.57;;;10.73;;
17145;SDS011;8688;54.444;18.444;2023-07-29T04:39:24;17.00;;;9.93;;
17145;SDS011;8688;54.444;18.444;2023-07-29T04:41:52;13.55;;;9.85;;
17145;SDS011;8688;54.444;18.444;2023-07-29T04:44:22;11.75;;;9.43;;
17145;SDS011;8688;54.444;18.444;2023-07-29T04:46:51;12.93;;;9.60;;
17145;SDS011;8688;54.444;18.444;2023-07-29T04:49:18;12.30;;;9.90;;
17145;SDS011;8688;54.444;18.444;2023-07-29T04:51:48;14.10;;;10.68;;
17145;SDS011;8688;54.444;18.444;2023-07-29T04:54:16;13.38;;;9.75;;
17145;SDS011;8688;54.444;18.444;2023-07-29T04:56:46;13.65;;;9.50;;
17145;SDS011;8688;54.444;18.444;2023-07-29T04:59:14;14.18;;;9.57;;
17145;SDS011;8688;54.444;18.444;2023-07-29T05:01:42;13.52;;;10.00;;
17145;SDS011;8688;54.444;18.444;2023-07-29T05:04:14;14.02;;;9.52;;
17145;SDS011;8688;54.444;18.444;2023-07-29T05:06:42;13.18;;;9.77;;
17145;SDS011;8688;54.444;18.444;2023-07-29T05:09:13;13.25;;;9.55;;
17145;SDS011;8688;54.444;18.444;2023-07-29T05:11:41;10.57;;;8.68;;
17145;SDS011;8688;54.444;18.444;2023-07-29T05:14:10;9.82;;;8.02;;
17145;SDS011;8688;54.444;18.444;2023-07-29T05:16:43;10.50;;;8.40;;
17145;SDS011;8688;54.444;18.444;2023-07-29T05:19:11;8.73;;;7.70;;
17145;SDS011;8688;54.444;18.444;2023-07-29T05:21:41;9.18;;;7.88;;
17145;SDS011;8688;54.444;18.444;2023-07-29T05:24:09;10.30;;;7.57;;
17145;SDS011;8688;54.444;18.444;2023-07-29T05:26:37;9.50;;;7.93;;
17145;SDS011;8688;54.444;18.444;2023-07-29T05:29:04;8.80;;;7.07;;
17145;SDS011;8688;54.444;18.444;2023-07-29T05:31:32;8.57;;;7.13;;
17145;SDS011;8688;54.444;18.444;2023-07-29T05:34:00;8.07;;;7.28;;
17145;SDS011;8688;54.444;18.444;2023-07-29T05:36:30;8.77;;;7.07;;
17145;SDS011;8688;54.444;18.444;2023-07-29T05:38:58;9.50;;;7.40;;
17145;SDS011;8688;54.444;18.444;2023-07-29T05:41:26;8.80;;;6.55;;
17145;SDS011;8688;54.444;18.444;2023-07-29T05:43:54;8.23;;;7.00;;
17145;SDS011;8688;54.444;18.444;2023-07-29T05:46:22;9.20;;;6.88;;
17145;SDS011;8688;54.444;18.444;2023-07-29T05:48:50;6.88;;;5.78;;
17145;SDS011;8688;54.444;18.444;2023-07-29T05:51:17;7.90;;;6.20;;
17145;SDS011;8688;54.444;18.444;2023-07-29T05:53:47;7.93;;;5.85;;
17145;SDS011;8688;54.444;18.444;2023-07-29T05:56:14;7.07;;;5.75;;
17145;SDS011;8688;54.444;18.444;2023-07-29T05:58:43;7.18;;;5.72;;
17145;SDS011;8688;54.444;18.444;2023-07-29T06:01:11;7.32;;;5.40;;
17145;SDS011;8688;54.444;18.444;2023-07-29T06:03:39;9.57;;;5.32;;
17145;SDS011;8688;54.444;18.444;2023-07-29T06:06:06;6.55;;;5.30;;
17145;SDS011;8688;54.444;18.444;2023-07-29T06:08:34;7.00;;;4.88;;
17145;SDS011;8688;54.444;18.444;2023-07-29T06:11:04;5.60;;;4.50;;
17145;SDS011;8688;54.444;18.444;2023-07-29T06:13:32;6.57;;;4.72;;
17145;SDS011;8688;54.444;18.444;2023-07-29T06:15:59;6.85;;;4.82;;
17145;SDS011;8688;54.444;18.444;2023-07-29T06:18:27;6.70;;;4.40;;
17145;SDS011;8688;54.444;18.444;2023-07-29T06:20:57;7.05;;;3.90;;
17145;SDS011;8688;54.444;18.444;2023-07-29T06:23:24;5.63;;;3.92;;
17145;SDS011;8688;54.444;18.444;2023-07-29T06:25:55;4.45;;;3.55;;
17145;SDS011;8688;54.444;18.444;2023-07-29T06:28:25;4.50;;;3.30;;
17145;SDS011;8688;54.444;18.444;2023-07-29T06:30:54;6.43;;;3.25;;
17145;SDS011;8688;54.444;18.444;2023-07-29T06:33:21;5.32;;;3.17;;
17145;SDS011;8688;54.444;18.444;2023-07-29T06:35:49;3.22;;;2.80;;
17145;SDS011;8688;54.444;18.444;2023-07-29T06:38:16;3.28;;;2.97;;
17145;SDS011;8688;54.444;18.444;2023-07-29T06:40:47;6.10;;;2.97;;
17145;SDS011;8688;54.444;18.444;2023-07-29T06:43:14;3.97;;;2.78;;
17145;SDS011;8688;54.444;18.444;2023-07-29T06:45:43;4.55;;;3.08;;
17145;SDS011;8688;54.444;18.444;2023-07-29T06:48:11;6.40;;;3.30;;
17145;SDS011;8688;54.444;18.444;2023-07-29T06:50:39;4.95;;;3.78;;
17145;SDS011;8688;54.444;18.444;2023-07-29T06:53:06;6.07;;;3.33;;
17145;SDS011;8688;54.444;18.444;2023-07-29T06:55:34;4.45;;;2.95;;
17145;SDS011;8688;54.444;18.444;2023-07-29T06:58:02;4.47;;;2.80;;
17145;SDS011;8688;54.444;18.444;2023-07-29T07:00:30;3.65;;;2.40;;
17145;SDS011;8688;54.444;18.444;2023-07-29T07:02:59;4.95;;;2.35;;
17145;SDS011;8688;54.444;18.444;2023-07-29T07:05:27;5.25;;;2.60;;
17145;SDS011;8688;54.444;18.444;2023-07-29T07:07:54;3.85;;;2.90;;
17145;SDS011;8688;54.444;18.444;2023-07-29T07:10:22;3.97;;;2.60;;
17145;SDS011;8688;54.444;18.444;2023-07-29T07:12:50;5.53;;;2.50;;
17145;SDS011;8688;54.444;18.444;2023-07-29T07:15:18;6.13;;;2.63;;
17145;SDS011;8688;54.444;18.444;2023-07-29T07:17:46;3.15;;;2.58;;
17145;SDS011;8688;54.444;18.444;2023-07-29T07:20:15;4.50;;;2.75;;
17145;SDS011;8688;54.444;18.444;2023-07-29T07:22:43;4.95;;;2.55;;
17145;SDS011;8688;54.444;18.444;2023-07-29T07:25:11;4.60;;;2.50;;
17145;SDS011;8688;54.444;18.444;2023-07-29T07:27:39;3.65;;;2.55;;
17145;SDS011;8688;54.444;18.444;2023-07-29T07:30:06;6.00;;;2.50;;
17145;SDS011;8688;54.444;18.444;2023-07-29T07:32:34;6.47;;;2.42;;
17145;SDS011;8688;54.444;18.444;2023-07-29T07:35:03;9.88;;;2.58;;
17145;SDS011;8688;54.444;18.444;2023-07-29T07:37:33;4.85;;;2.30;;
17145;SDS011;8688;54.444;18.444;2023-07-29T07:40:00;4.95;;;2.85;;
17145;SDS011;8688;54.444;18.444;2023-07-29T07:42:28;3.22;;;2.63;;
17145;SDS011;8688;54.444;18.444;2023-07-29T07:44:56;3.75;;;2.80;;
17145;SDS011;8688;54.444;18.444;2023-07-29T07:47:24;4.47;;;2.60;;
17145;SDS011;8688;54.444;18.444;2023-07-29T07:49:52;4.57;;;3.08;;
17145;SDS011;8688;54.444;18.444;2023-07-29T07:52:19;7.18;;;2.88;;
17145;SDS011;8688;54.444;18.444;2023-07-29T07:54:52;4.50;;;2.92;;
17145;SDS011;8688;54.444;18.444;2023-07-29T07:57:20;4.78;;;2.90;;
17145;SDS011;8688;54.444;18.444;2023-07-29T07:59:48;5.55;;;2.92;;
17145;SDS011;8688;54.444;18.444;2023-07-29T08:02:17;6.57;;;2.72;;
17145;SDS011;8688;54.444;18.444;2023-07-29T08:04:45;4.75;;;2.58;;
17145;SDS011;8688;54.444;18.444;2023-07-29T08:07:14;4.32;;;2.75;;
17145;SDS011;8688;54.444;18.444;2023-07-29T08:09:42;3.90;;;2.78;;
17145;SDS011;8688;54.444;18.444;2023-07-29T08:12:12;3.88;;;2.42;;
17145;SDS011;8688;54.444;18.444;2023-07-29T08:14:41;4.85;;;2.67;;
17145;SDS011;8688;54.444;18.444;2023-07-29T08:17:08;4.07;;;2.85;;
17145;SDS011;8688;54.444;18.444;2023-07-29T08:19:36;3.97;;;2.70;;
17145;SDS011;8688;54.444;18.444;2023-07-29T08:22:06;3.45;;;2.45;;
17145;SDS011;8688;54.444;18.444;2023-07-29T08:24:34;3.13;;;2.30;;
17145;SDS011;8688;54.444;18.444;2023-07-29T08:27:01;3.35;;;2.42;;
17145;SDS011;8688;54.444;18.444;2023-07-29T08:29:34;2.70;;;2.20;;
17145;SDS011;8688;54.444;18.444;2023-07-29T08:32:01;9.77;;;2.30;;
17145;SDS011;8688;54.444;18.444;2023-07-29T08:34:29;3.25;;;2.20;;
17145;SDS011;8688;54.444;18.444;2023-07-29T08:36:56;3.38;;;2.22;;
17145;SDS011;8688;54.444;18.444;2023-07-29T08:39:25;4.93;;;2.22;;
17145;SDS011;8688;54.444;18.444;2023-07-29T08:41:54;2.38;;;2.17;;
17145;SDS011;8688;54.444;18.444;2023-07-29T08:44:26;4.10;;;2.40;;
17145;SDS011;8688;54.444;18.444;2023-07-29T08:46:58;3.75;;;2.30;;
17145;SDS011;8688;54.444;18.444;2023-07-29T08:49:27;3.88;;;2.42;;
17145;SDS011;8688;54.444;18.444;2023-07-29T08:51:59;3.67;;;2.50;;
17145;SDS011;8688;54.444;18.444;2023-07-29T08:54:27;4.80;;;2.47;;
17145;SDS011;8688;54.444;18.444;2023-07-29T08:56:55;2.20;;;2.00;;
17145;SDS011;8688;54.444;18.444;2023-07-29T08:59:23;3.65;;;2.40;;
17145;SDS011;8688;54.444;18.444;2023-07-29T09:01:51;3.20;;;2.40;;
17145;SDS011;8688;54.444;18.444;2023-07-29T09:04:24;2.95;;;2.25;;
17145;SDS011;8688;54.444;18.444;2023-07-29T09:06:51;3.40;;;2.13;;
17145;SDS011;8688;54.444;18.444;2023-07-29T09:09:22;2.72;;;2.10;;
17145;SDS011;8688;54.444;18.444;2023-07-29T09:11:50;3.15;;;2.28;;
17145;SDS011;8688;54.444;18.444;2023-07-29T09:14:17;2.70;;;2.20;;
17145;SDS011;8688;54.444;18.444;2023-07-29T09:16:48;3.78;;;2.40;;
17145;SDS011;8688;54.444;18.444;2023-07-29T09:19:15;4.80;;;2.45;;
17145;SDS011;8688;54.444;18.444;2023-07-29T09:21:45;3.20;;;2.50;;
17145;SDS011;8688;54.444;18.444;2023-07-29T09:24:15;3.40;;;2.45;;
17145;SDS011;8688;54.444;18.444;2023-07-29T09:26:48;4.72;;;2.50;;
17145;SDS011;8688;54.444;18.444;2023-07-29T09:29:21;3.83;;;2.78;;
17145;SDS011;8688;54.444;18.444;2023-07-29T09:31:49;5.32;;;2.60;;
17145;SDS011;8688;54.444;18.444;2023-07-29T09:34:17;14.45;;;3.72;;
17145;SDS011;8688;54.444;18.444;2023-07-29T09:36:46;5.60;;;2.92;;
17145;SDS011;8688;54.444;18.444;2023-07-29T09:39:16;2.97;;;2.30;;
17145;SDS011;8688;54.444;18.444;2023-07-29T09:41:46;2.58;;;2.33;;
17145;SDS011;8688;54.444;18.444;2023-07-29T09:44:15;3.70;;;2.35;;
17145;SDS011;8688;54.444;18.444;2023-07-29T09:46:45;2.97;;;2.20;;
17145;SDS011;8688;54.444;18.444;2023-07-29T09:49:13;3.25;;;2.38;;
17145;SDS011;8688;54.444;18.444;2023-07-29T09:51:41;3.33;;;2.67;;
17145;SDS011;8688;54.444;18.444;2023-07-29T09:54:10;2.88;;;2.15;;
17145;SDS011;8688;54.444;18.444;2023-07-29T09:56:41;2.78;;;2.53;;
17145;SDS011;8688;54.444;18.444;2023-07-29T09:59:10;4.38;;;2.30;;
17145;SDS011;8688;54.444;18.444;2023-07-29T10:01:38;3.10;;;2.20;;
17145;SDS011;8688;54.444;18.444;2023-07-29T10:04:06;3.78;;;2.10;;
17145;SDS011;8688;54.444;18.444;2023-07-29T10:06:35;2.00;;;1.80;;
17145;SDS011;8688;54.444;18.444;2023-07-29T10:09:04;2.35;;;1.92;;
17145;SDS011;8688;54.444;18.444;2023-07-29T10:11:35;2.35;;;2.15;;
17145;SDS011;8688;54.444;18.444;2023-07-29T10:14:04;2.95;;;2.15;;
17145;SDS011;8688;54.444;18.444;2023-07-29T10:16:32;3.15;;;2.42;;
17145;SDS011;8688;54.444;18.444;2023-07-29T10:19:01;3.05;;;2.20;;
17145;SDS011;8688;54.444;18.444;2023-07-29T10:21:29;7.20;;;2.53;;
17145;SDS011;8688;54.444;18.444;2023-07-29T10:23:58;3.55;;;2.50;;
17145;SDS011;8688;54.444;18.444;2023-07-29T10:26:29;5.35;;;2.30;;
17145;SDS011;8688;54.444;18.444;2023-07-29T10:29:01;3.25;;;2.30;;
17145;SDS011;8688;54.444;18.444;2023-07-29T10:31:33;4.22;;;2.47;;
17145;SDS011;8688;54.444;18.444;2023-07-29T10:34:02;3.80;;;2.30;;
17145;SDS011;8688;54.444;18.444;2023-07-29T10:36:30;3.47;;;2.30;;
17145;SDS011;8688;54.444;18.444;2023-07-29T10:38:58;3.72;;;2.30;;
17145;SDS011;8688;54.444;18.444;2023-07-29T10:47:15;4.38;;;2.72;;
17145;SDS011;8688;54.444;18.444;2023-07-29T10:49:44;2.80;;;2.47;;
17145;SDS011;8688;54.444;18.444;2023-07-29T10:52:13;3.20;;;2.40;;
17145;SDS011;8688;54.444;18.444;2023-07-29T10:54:42;3.30;;;2.28;;
17145;SDS011;8688;54.444;18.444;2023-07-29T10:57:12;2.83;;;2.15;;
17145;SDS011;8688;54.444;18.444;2023-07-29T10:59:41;2.80;;;2.50;;
17145;SDS011;8688;54.444;18.444;2023-07-29T11:02:22;3.75;;;2.33;;
17145;SDS011;8688;54.444;18.444;2023-07-29T11:04:56;3.25;;;2.22;;
17145;SDS011;8688;54.444;18.444;2023-07-29T11:07:24;4.63;;;2.03;;
17145;SDS011;8688;54.444;18.444;2023-07-29T11:09:52;2.70;;;2.22;;
17145;SDS011;8688;54.444;18.444;2023-07-29T11:12:39;2.22;;;1.85;;
17145;SDS011;8688;54.444;18.444;2023-07-29T11:15:12;2.35;;;2.13;;
17145;SDS011;8688;54.444;18.444;2023-07-29T11:17:46;3.08;;;2.35;;
17145;SDS011;8688;54.444;18.444;2023-07-29T11:20:17;1.98;;;1.77;;
17145;SDS011;8688;54.444;18.444;2023-07-29T11:22:47;4.80;;;2.50;;
17145;SDS011;8688;54.444;18.444;2023-07-29T11:25:15;5.18;;;2.10;;
17145;SDS011;8688;54.444;18.444;2023-07-29T11:27:44;2.60;;;1.85;;
17145;SDS011;8688;54.444;18.444;2023-07-29T11:30:14;2.10;;;1.88;;
17145;SDS011;8688;54.444;18.444;2023-07-29T11:32:46;2.83;;;2.10;;
17145;SDS011;8688;54.444;18.444;2023-07-29T11:35:15;3.13;;;2.17;;
17145;SDS011;8688;54.444;18.444;2023-07-29T11:37:44;2.55;;;2.10;;
17145;SDS011;8688;54.444;18.444;2023-07-29T11:40:13;3.42;;;2.10;;
17145;SDS011;8688;54.444;18.444;2023-07-29T11:42:41;2.47;;;2.28;;
17145;SDS011;8688;54.444;18.444;2023-07-29T11:45:10;2.38;;;2.17;;
17145;SDS011;8688;54.444;18.444;2023-07-29T11:47:37;4.00;;;2.30;;
17145;SDS011;8688;54.444;18.444;2023-07-29T11:50:08;3.80;;;2.10;;
17145;SDS011;8688;54.444;18.444;2023-07-29T11:52:39;3.45;;;2.17;;
17145;SDS011;8688;54.444;18.444;2023-07-29T11:55:09;2.25;;;2.00;;
17145;SDS011;8688;54.444;18.444;2023-07-29T11:57:36;4.97;;;2.40;;
17145;SDS011;8688;54.444;18.444;2023-07-29T12:00:05;3.53;;;2.60;;
17145;SDS011;8688;54.444;18.444;2023-07-29T12:02:36;2.75;;;2.20;;
17145;SDS011;8688;54.444;18.444;2023-07-29T12:05:07;3.55;;;2.20;;
17145;SDS011;8688;54.444;18.444;2023-07-29T12:07:36;3.92;;;2.35;;
17145;SDS011;8688;54.444;18.444;2023-07-29T12:10:06;3.45;;;2.35;;
17145;SDS011;8688;54.444;18.444;2023-07-29T12:12:37;3.42;;;2.05;;
17145;SDS011;8688;54.444;18.444;2023-07-29T12:15:10;2.50;;;2.10;;
17145;SDS011;8688;54.444;18.444;2023-07-29T12:17:39;5.95;;;2.03;;
17145;SDS011;8688;54.444;18.444;2023-07-29T12:20:10;2.58;;;2.13;;
17145;SDS011;8688;54.444;18.444;2023-07-29T12:22:38;2.50;;;2.30;;
17145;SDS011;8688;54.444;18.444;2023-07-29T12:25:06;2.80;;;2.50;;
17145;SDS011;8688;54.444;18.444;2023-07-29T12:27:35;3.53;;;2.30;;
17145;SDS011;8688;54.444;18.444;2023-07-29T12:30:04;3.90;;;2.42;;
17145;SDS011;8688;54.444;18.444;2023-07-29T12:32:33;3.65;;;2.40;;
17145;SDS011;8688;54.444;18.444;2023-07-29T12:35:11;3.00;;;2.35;;
17145;SDS011;8688;54.444;18.444;2023-07-29T12:37:39;3.03;;;2.42;;
17145;SDS011;8688;54.444;18.444;2023-07-29T12:40:09;3.08;;;2.65;;
17145;SDS011;8688;54.444;18.444;2023-07-29T12:42:49;2.70;;;2.30;;
17145;SDS011;8688;54.444;18.444;2023-07-29T12:45:17;2.85;;;2.25;;
17145;SDS011;8688;54.444;18.444;2023-07-29T12:47:48;2.97;;;2.00;;
17145;SDS011;8688;54.444;18.444;2023-07-29T12:50:17;3.42;;;2.28;;
17145;SDS011;8688;54.444;18.444;2023-07-29T12:52:46;2.63;;;2.08;;
17145;SDS011;8688;54.444;18.444;2023-07-29T12:55:14;2.45;;;2.08;;
17145;SDS011;8688;54.444;18.444;2023-07-29T12:57:42;2.25;;;2.05;;
17145;SDS011;8688;54.444;18.444;2023-07-29T13:00:10;3.85;;;2.40;;
17145;SDS011;8688;54.444;18.444;2023-07-29T13:02:39;2.65;;;2.35;;
17145;SDS011;8688;54.444;18.444;2023-07-29T13:05:08;6.00;;;2.38;;
17145;SDS011;8688;54.444;18.444;2023-07-29T13:07:41;2.90;;;2.38;;
17145;SDS011;8688;54.444;18.444;2023-07-29T13:10:10;3.35;;;2.33;;
17145;SDS011;8688;54.444;18.444;2023-07-29T13:12:39;3.63;;;2.15;;
17145;SDS011;8688;54.444;18.444;2023-07-29T13:15:10;3.90;;;2.28;;
17145;SDS011;8688;54.444;18.444;2023-07-29T13:17:38;3.92;;;2.45;;
17145;SDS011;8688;54.444;18.444;2023-07-29T13:20:07;3.78;;;2.25;;
17145;SDS011;8688;54.444;18.444;2023-07-29T13:22:39;4.75;;;2.33;;
17145;SDS011;8688;54.444;18.444;2023-07-29T13:25:08;4.53;;;2.50;;
17145;SDS011;8688;54.444;18.444;2023-07-29T13:27:36;3.53;;;2.42;;
17145;SDS011;8688;54.444;18.444;2023-07-29T13:30:05;2.30;;;2.10;;
17145;SDS011;8688;54.444;18.444;2023-07-29T13:32:36;3.85;;;2.58;;
17145;SDS011;8688;54.444;18.444;2023-07-29T13:35:04;3.13;;;2.10;;
17145;SDS011;8688;54.444;18.444;2023-07-29T13:37:33;2.85;;;2.35;;
17145;SDS011;8688;54.444;18.444;2023-07-29T13:40:02;4.03;;;2.78;;
17145;SDS011;8688;54.444;18.444;2023-07-29T13:42:39;3.17;;;2.20;;
17145;SDS011;8688;54.444;18.444;2023-07-29T13:45:07;2.95;;;2.42;;
17145;SDS011;8688;54.444;18.444;2023-07-29T13:47:36;2.42;;;2.15;;
17145;SDS011;8688;54.444;18.444;2023-07-29T13:50:05;2.38;;;2.17;;
17145;SDS011;8688;54.444;18.444;2023-07-29T13:52:35;3.30;;;2.67;;
17145;SDS011;8688;54.444;18.444;2023-07-29T13:55:05;3.95;;;2.40;;
17145;SDS011;8688;54.444;18.444;2023-07-29T13:57:35;3.47;;;2.45;;
17145;SDS011;8688;54.444;18.444;2023-07-29T14:00:04;4.93;;;3.08;;
17145;SDS011;8688;54.444;18.444;2023-07-29T14:02:34;3.75;;;1.88;;
17145;SDS011;8688;54.444;18.444;2023-07-29T14:05:02;3.65;;;2.03;;
17145;SDS011;8688;54.444;18.444;2023-07-29T14:07:32;2.10;;;1.80;;
17145;SDS011;8688;54.444;18.444;2023-07-29T14:10:00;3.05;;;1.90;;
17145;SDS011;8688;54.444;18.444;2023-07-29T14:12:30;2.50;;;2.15;;
17145;SDS011;8688;54.444;18.444;2023-07-29T14:14:58;4.38;;;3.05;;
17145;SDS011;8688;54.444;18.444;2023-07-29T14:17:26;2.83;;;2.50;;
17145;SDS011;8688;54.444;18.444;2023-07-29T14:19:54;5.32;;;2.35;;
17145;SDS011;8688;54.444;18.444;2023-07-29T14:22:22;2.92;;;2.00;;
17145;SDS011;8688;54.444;18.444;2023-07-29T14:24:50;3.15;;;2.65;;
17145;SDS011;8688;54.444;18.444;2023-07-29T14:27:18;3.08;;;2.53;;
17145;SDS011;8688;54.444;18.444;2023-07-29T14:29:48;4.45;;;2.60;;
17145;SDS011;8688;54.444;18.444;2023-07-29T14:32:15;3.85;;;3.22;;
17145;SDS011;8688;54.444;18.444;2023-07-29T14:34:43;5.68;;;3.38;;
17145;SDS011;8688;54.444;18.444;2023-07-29T14:37:11;3.55;;;3.00;;
17145;SDS011;8688;54.444;18.444;2023-07-29T14:39:39;2.70;;;2.50;;
17145;SDS011;8688;54.444;18.444;2023-07-29T14:42:07;3.03;;;2.50;;
17145;SDS011;8688;54.444;18.444;2023-07-29T14:44:35;2.50;;;2.00;;
17145;SDS011;8688;54.444;18.444;2023-07-29T14:47:05;2.58;;;2.38;;
17145;SDS011;8688;54.444;18.444;2023-07-29T14:49:34;2.83;;;2.15;;
17145;SDS011;8688;54.444;18.444;2023-07-29T14:52:02;2.95;;;2.47;;
17145;SDS011;8688;54.444;18.444;2023-07-29T14:54:30;3.47;;;2.33;;
17145;SDS011;8688;54.444;18.444;2023-07-29T14:56:58;2.50;;;2.30;;
17145;SDS011;8688;54.444;18.444;2023-07-29T14:59:26;3.50;;;2.28;;